Time,TemperatureF,DewpointF,PressureIn,WindDirection,WindDirectionDegrees,WindSpeedMPH,WindSpeedGustMPH,Humidity,HourlyPrecipIn,Conditions,Clouds,dailyrainin,SoftwareType,DateUTC
2013-12-10 00:11:00,22.5,13.0,30.46,ESE,118,4.0,6.0,66,0.00,,,0.00,weatherlink.com 1.10,2013-12-10 08:11:00,
2013-12-10 00:26:00,22.4,13.0,30.46,SE,124,2.0,6.0,66,0.00,,,0.00,weatherlink.com 1.10,2013-12-10 08:26:00,
2013-12-10 00:41:00,22.3,13.0,30.46,SSE,158,3.0,6.0,67,0.00,,,0.00,weatherlink.com 1.10,2013-12-10 08:41:00,
2013-12-10 00:56:00,21.5,13.0,30.46,SE,136,0.0,5.0,69,0.00,,,0.00,weatherlink.com 1.10,2013-12-10 08:56:00,
2013-12-10 01:11:00,21.9,14.0,30.46,SE,139,2.0,5.0,70,0.00,,,0.00,weatherlink.com 1.10,2013-12-10 09:11:00,
2013-12-10 01:26:00,22.1,14.0,30.46,SE,136,3.0,5.0,70,0.00,,,0.00,weatherlink.com 1.10,2013-12-10 09:26:00,
2013-12-10 01:41:00,22.7,14.0,30.46,SE,142,5.0,5.0,70,0.00,,,0.00,weatherlink.com 1.10,2013-12-10 09:41:00,
2013-12-10 01:57:00,23.6,15.0,30.46,SE,139,3.0,6.0,69,0.00,,,0.00,weatherlink.com 1.10,2013-12-10 09:57:00,
2013-12-10 02:12:00,24.0,15.0,30.45,SE,129,1.0,5.0,68,0.00,,,0.00,weatherlink.com 1.10,2013-12-10 10:12:00,
2013-12-10 02:27:00,24.3,15.0,30.45,South,169,1.0,5.0,68,0.00,,,0.00,weatherlink.com 1.10,2013-12-10 10:27:00,
2013-12-10 02:42:00,24.4,15.0,30.46,East,82,0.0,4.0,68,0.00,,,0.00,weatherlink.com 1.10,2013-12-10 10:42:00,
2013-12-10 02:57:00,24.0,15.0,30.46,SE,134,1.0,1.0,69,0.00,,,0.00,weatherlink.com 1.10,2013-12-10 10:57:00,
2013-12-10 03:12:00,25.0,16.0,30.46,SE,129,0.0,5.0,68,0.00,,,0.00,weatherlink.com 1.10,2013-12-10 11:12:00,
2013-12-10 03:27:00,25.1,16.0,30.46,ESE,111,0.0,4.0,67,0.00,,,0.00,weatherlink.com 1.10,2013-12-10 11:27:00,
2013-12-10 03:42:00,25.1,16.0,30.46,SSE,156,1.0,3.0,67,0.00,,,0.00,weatherlink.com 1.10,2013-12-10 11:42:00,
2013-12-10 03:57:00,25.5,16.0,30.45,SSE,158,0.0,5.0,66,0.00,,,0.00,weatherlink.com 1.10,2013-12-10 11:57:00,
2013-12-10 04:12:00,25.2,16.0,30.45,ESE,110,1.0,4.0,67,0.00,,,0.00,weatherlink.com 1.10,2013-12-10 12:12:00,
2013-12-10 04:27:00,25.5,16.0,30.45,ESE,110,1.0,4.0,67,0.00,,,0.00,weatherlink.com 1.10,2013-12-10 12:27:00,
2013-12-10 04:42:00,26.3,16.0,30.45,ESE,111,2.0,4.0,65,0.00,,,0.00,weatherlink.com 1.10,2013-12-10 12:42:00,
2013-12-10 04:57:00,26.9,16.0,30.45,ESE,105,2.0,2.0,63,0.00,,,0.00,weatherlink.com 1.10,2013-12-10 12:57:00,
2013-12-10 05:12:00,27.7,16.0,30.45,East,85,0.0,2.0,61,0.00,,,0.00,weatherlink.com 1.10,2013-12-10 13:12:00,
2013-12-10 05:27:00,28.2,16.0,30.45,ESE,113,0.0,1.0,61,0.00,,,0.00,weatherlink.com 1.10,2013-12-10 13:27:00,
2013-12-10 05:42:00,28.6,16.0,30.45,ESE,113,0.0,0.0,60,0.00,,,0.00,weatherlink.com 1.10,2013-12-10 13:42:00,
2013-12-10 05:57:00,29.0,16.0,30.45,NNE,12,0.0,1.0,59,0.00,,,0.00,weatherlink.com 1.10,2013-12-10 13:57:00,
2013-12-10 06:12:00,29.1,16.0,30.45,NNW,342,0.0,2.0,58,0.00,,,0.00,weatherlink.com 1.10,2013-12-10 14:12:00,
2013-12-10 06:27:00,29.1,15.0,30.45,NNE,16,0.0,2.0,56,0.00,,,0.00,weatherlink.com 1.10,2013-12-10 14:27:00,
2013-12-10 06:42:00,28.8,15.0,30.45,NNE,25,0.0,3.0,56,0.00,,,0.00,weatherlink.com 1.10,2013-12-10 14:42:00,
2013-12-10 06:57:00,28.6,14.0,30.45,ENE,75,0.0,2.0,55,0.00,,,0.00,weatherlink.com 1.10,2013-12-10 14:57:00,
2013-12-10 07:12:00,28.5,14.0,30.45,North,354,0.0,1.0,55,0.00,,,0.00,weatherlink.com 1.10,2013-12-10 15:12:00,
2013-12-10 07:27:00,28.6,14.0,30.44,NNE,13,0.0,1.0,54,0.00,,,0.00,weatherlink.com 1.10,2013-12-10 15:27:00,
2013-12-10 07:42:00,28.4,14.0,30.45,East,101,0.0,0.0,54,0.00,,,0.00,weatherlink.com 1.10,2013-12-10 15:42:00,
2013-12-10 07:57:00,28.7,14.0,30.45,ESE,115,0.0,2.0,54,0.00,,,0.00,weatherlink.com 1.10,2013-12-10 15:57:00,
2013-12-10 08:12:00,28.8,14.0,30.44,ENE,57,1.0,3.0,54,0.00,,,0.00,weatherlink.com 1.10,2013-12-10 16:12:00,
2013-12-10 08:27:00,29.1,14.0,30.45,East,79,0.0,2.0,54,0.00,,,0.00,weatherlink.com 1.10,2013-12-10 16:27:00,
2013-12-10 08:42:00,29.4,14.0,30.45,East,79,0.0,0.0,54,0.00,,,0.00,weatherlink.com 1.10,2013-12-10 16:42:00,
2013-12-10 08:57:00,29.9,15.0,30.45,NNE,19,0.0,2.0,54,0.00,,,0.00,weatherlink.com 1.10,2013-12-10 16:57:00,
2013-12-10 09:12:00,30.5,15.0,30.45,NNW,344,0.0,1.0,52,0.00,,,0.00,weatherlink.com 1.10,2013-12-10 17:12:00,
2013-12-10 09:27:00,31.0,14.0,30.45,NW,319,0.0,1.0,50,0.00,,,0.00,weatherlink.com 1.10,2013-12-10 17:27:00,
2013-12-10 09:42:00,31.1,14.0,30.45,NW,319,0.0,0.0,50,0.00,,,0.00,weatherlink.com 1.10,2013-12-10 17:42:00,
2013-12-10 09:57:00,31.3,14.0,30.45,NW,319,0.0,0.0,50,0.00,,,0.00,weatherlink.com 1.10,2013-12-10 17:57:00,
2013-12-10 10:12:00,32.1,14.0,30.45,North,349,0.0,1.0,47,0.00,,,0.00,weatherlink.com 1.10,2013-12-10 18:12:00,
2013-12-10 10:27:00,32.4,14.0,30.45,WNW,302,0.0,1.0,47,0.00,,,0.00,weatherlink.com 1.10,2013-12-10 18:27:00,
2013-12-10 10:42:00,32.6,15.0,30.45,WNW,302,0.0,0.0,48,0.00,,,0.00,weatherlink.com 1.10,2013-12-10 18:42:00,
2013-12-10 10:57:00,33.0,16.0,30.45,NNW,333,0.0,2.0,49,0.00,,,0.00,weatherlink.com 1.10,2013-12-10 18:57:00,
2013-12-10 11:12:00,33.3,16.0,30.44,North,349,0.0,2.0,49,0.00,,,0.00,weatherlink.com 1.10,2013-12-10 19:12:00,
2013-12-10 11:27:00,34.1,17.0,30.43,North,358,0.0,3.0,49,0.00,,,0.00,weatherlink.com 1.10,2013-12-10 19:27:00,
2013-12-10 11:42:00,34.7,18.0,30.43,NW,310,1.0,3.0,50,0.00,,,0.00,weatherlink.com 1.10,2013-12-10 19:42:00,
2013-12-10 11:57:00,34.6,18.0,30.43,NW,314,1.0,3.0,51,0.00,,,0.00,weatherlink.com 1.10,2013-12-10 19:57:00,
2013-12-10 12:13:00,34.0,18.0,30.42,WNW,299,1.0,3.0,53,0.00,,,0.00,weatherlink.com 1.10,2013-12-10 20:13:00,
2013-12-10 12:28:00,33.8,19.0,30.43,WNW,297,1.0,2.0,56,0.00,,,0.00,weatherlink.com 1.10,2013-12-10 20:28:00,
2013-12-10 12:43:00,33.2,19.0,30.42,WNW,290,1.0,3.0,57,0.00,,,0.00,weatherlink.com 1.10,2013-12-10 20:43:00,
2013-12-10 12:58:00,33.5,19.0,30.42,WNW,291,1.0,2.0,56,0.00,,,0.00,weatherlink.com 1.10,2013-12-10 20:58:00,
2013-12-10 13:13:00,33.1,20.0,30.41,WNW,300,1.0,2.0,59,0.00,,,0.00,weatherlink.com 1.10,2013-12-10 21:13:00,
2013-12-10 13:28:00,33.7,21.0,30.41,WNW,295,2.0,3.0,59,0.00,,,0.00,weatherlink.com 1.10,2013-12-10 21:28:00,
2013-12-10 13:43:00,34.3,21.0,30.40,WNW,300,1.0,4.0,59,0.00,,,0.00,weatherlink.com 1.10,2013-12-10 21:43:00,
2013-12-10 13:58:00,34.1,22.0,30.40,NNW,327,2.0,4.0,62,0.00,,,0.00,weatherlink.com 1.10,2013-12-10 21:58:00,
2013-12-10 14:13:00,33.8,22.0,30.39,NW,314,2.0,3.0,62,0.00,,,0.00,weatherlink.com 1.10,2013-12-10 22:13:00,
2013-12-10 14:28:00,33.9,23.0,30.40,NW,325,2.0,4.0,64,0.00,,,0.00,weatherlink.com 1.10,2013-12-10 22:28:00,
2013-12-10 14:43:00,33.8,23.0,30.39,WNW,294,0.0,2.0,64,0.00,,,0.00,weatherlink.com 1.10,2013-12-10 22:43:00,
2013-12-10 14:58:00,33.8,23.0,30.39,WNW,295,1.0,3.0,64,0.00,,,0.00,weatherlink.com 1.10,2013-12-10 22:58:00,
2013-12-10 15:13:00,32.9,22.0,30.39,WNW,295,0.0,2.0,65,0.00,,,0.00,weatherlink.com 1.10,2013-12-10 23:13:00,
2013-12-10 15:28:00,32.0,22.0,30.38,WNW,302,0.0,0.0,68,0.00,,,0.00,weatherlink.com 1.10,2013-12-10 23:28:00,
2013-12-10 15:43:00,32.8,23.0,30.39,WNW,295,0.0,0.0,66,0.00,,,0.00,weatherlink.com 1.10,2013-12-10 23:43:00,
2013-12-10 15:58:00,30.7,22.0,30.38,WNW,290,0.0,0.0,70,0.00,,,0.00,weatherlink.com 1.10,2013-12-10 23:58:00,
2013-12-10 16:13:00,29.5,22.0,30.38,ENE,77,0.0,1.0,72,0.00,,,0.00,weatherlink.com 1.10,2013-12-11 00:13:00,
2013-12-10 16:28:00,28.6,22.0,30.38,ENE,77,0.0,1.0,75,0.00,,,0.00,weatherlink.com 1.10,2013-12-11 00:28:00,
2013-12-10 16:43:00,27.9,21.0,30.38,SE,131,1.0,1.0,76,0.00,,,0.00,weatherlink.com 1.10,2013-12-11 00:43:00,
2013-12-10 16:58:00,27.7,21.0,30.38,ESE,105,0.0,1.0,76,0.00,,,0.00,weatherlink.com 1.10,2013-12-11 00:58:00,
2013-12-10 17:13:00,26.6,20.0,30.38,East,97,1.0,3.0,77,0.00,,,0.00,weatherlink.com 1.10,2013-12-11 01:13:00,
2013-12-10 17:28:00,27.7,21.0,30.39,ESE,111,0.0,2.0,77,0.00,,,0.00,weatherlink.com 1.10,2013-12-11 01:28:00,
2013-12-10 17:43:00,27.5,21.0,30.38,ESE,111,0.0,1.0,76,0.00,,,0.00,weatherlink.com 1.10,2013-12-11 01:43:00,
2013-12-10 17:58:00,28.5,22.0,30.39,ESE,115,0.0,1.0,76,0.00,,,0.00,weatherlink.com 1.10,2013-12-11 01:58:00,
2013-12-10 18:13:00,28.4,22.0,30.38,ESE,121,0.0,1.0,76,0.00,,,0.00,weatherlink.com 1.10,2013-12-11 02:13:00,
2013-12-10 18:28:00,29.0,22.0,30.39,ESE,121,0.0,0.0,75,0.00,,,0.00,weatherlink.com 1.10,2013-12-11 02:28:00,
2013-12-10 18:43:00,28.3,22.0,30.39,ESE,122,0.0,0.0,76,0.00,,,0.00,weatherlink.com 1.10,2013-12-11 02:43:00,
2013-12-10 18:58:00,29.3,22.0,30.39,ESE,121,0.0,0.0,75,0.00,,,0.00,weatherlink.com 1.10,2013-12-11 02:58:00,
2013-12-10 19:13:00,29.1,22.0,30.39,ESE,121,0.0,0.0,75,0.00,,,0.00,weatherlink.com 1.10,2013-12-11 03:13:00,
2013-12-10 19:28:00,29.0,22.0,30.39,ESE,107,0.0,1.0,76,0.00,,,0.00,weatherlink.com 1.10,2013-12-11 03:28:00,
2013-12-10 19:43:00,28.8,22.0,30.39,ESE,111,0.0,0.0,77,0.00,,,0.00,weatherlink.com 1.10,2013-12-11 03:43:00,
2013-12-10 19:58:00,28.6,23.0,30.39,SE,128,0.0,1.0,78,0.00,,,0.00,weatherlink.com 1.10,2013-12-11 03:58:00,
2013-12-10 20:13:00,28.8,23.0,30.39,SE,129,0.0,0.0,78,0.00,,,0.00,weatherlink.com 1.10,2013-12-11 04:13:00,
2013-12-10 20:28:00,28.4,23.0,30.39,ESE,117,0.0,2.0,79,0.00,,,0.00,weatherlink.com 1.10,2013-12-11 04:28:00,
2013-12-10 20:43:00,28.3,23.0,30.39,SE,125,0.0,1.0,79,0.00,,,0.00,weatherlink.com 1.10,2013-12-11 04:43:00,
2013-12-10 20:58:00,28.2,22.0,30.39,ESE,111,2.0,2.0,78,0.00,,,0.00,weatherlink.com 1.10,2013-12-11 04:58:00,
2013-12-10 21:13:00,27.3,22.0,30.40,ESE,123,0.0,2.0,80,0.00,,,0.00,weatherlink.com 1.10,2013-12-11 05:13:00,
2013-12-10 21:28:00,26.1,21.0,30.40,SE,136,0.0,0.0,81,0.00,,,0.00,weatherlink.com 1.10,2013-12-11 05:28:00,
2013-12-10 21:43:00,26.2,21.0,30.40,East,98,0.0,0.0,82,0.00,,,0.00,weatherlink.com 1.10,2013-12-11 05:43:00,
2013-12-10 21:58:00,25.5,21.0,30.40,ESE,115,0.0,2.0,82,0.00,,,0.00,weatherlink.com 1.10,2013-12-11 05:58:00,
2013-12-10 22:13:00,25.5,21.0,30.40,ESE,122,0.0,1.0,83,0.00,,,0.00,weatherlink.com 1.10,2013-12-11 06:13:00,
2013-12-10 22:43:00,25.5,20.0,30.40,ESE,113,0.0,1.0,80,0.00,,,0.00,weatherlink.com 1.10,2013-12-11 06:43:00,
2013-12-10 22:58:00,25.4,20.0,30.41,SSE,156,0.0,3.0,80,0.00,,,0.00,weatherlink.com 1.10,2013-12-11 06:58:00,
2013-12-10 23:13:00,25.3,20.0,30.41,ESE,111,0.0,2.0,80,0.00,,,0.00,weatherlink.com 1.10,2013-12-11 07:13:00,
2013-12-10 23:28:00,24.8,20.0,30.40,SSE,159,0.0,0.0,81,0.00,,,0.00,weatherlink.com 1.10,2013-12-11 07:28:00,
2013-12-10 23:43:00,24.6,20.0,30.40,SSE,148,0.0,3.0,81,0.00,,,0.00,weatherlink.com 1.10,2013-12-11 07:43:00,
2013-12-10 23:58:00,25.5,20.0,30.40,SE,146,2.0,5.0,80,0.00,,,0.00,weatherlink.com 1.10,2013-12-11 07:58:00,